sensor_id;sensor_type;location;lat;lon;timestamp;pressure;altitude;pressure_sealevel;temperature;humidity
71996;BME280;59862;47.732;7.346;2022-12-07T00:03:56;98238.14;;;3.72;82.58
71996;BME280;59862;47.732;7.346;2022-12-07T00:06:26;98239.64;;;3.65;82.59
71996;BME280;59862;47.732;7.346;2022-12-07T00:08:53;98236.55;;;3.60;82.54
71996;BME280;59862;47.732;7.346;2022-12-07T00:11:22;98233.67;;;3.57;82.54
71996;BME280;59862;47.732;7.346;2022-12-07T00:13:55;98236.30;;;3.63;82.56
71996;BME280;59862;47.732;7.346;2022-12-07T00:16:26;98226.78;;;3.60;82.42
71996;BME280;59862;47.732;7.346;2022-12-07T00:18:55;98227.85;;;3.63;82.33
71996;BME280;59862;47.732;7.346;2022-12-07T00:21:25;98229.66;;;3.63;82.20
71996;BME280;59862;47.732;7.346;2022-12-07T00:23:54;98226.38;;;3.65;82.24
71996;BME280;59862;47.732;7.346;2022-12-07T00:26:28;98221.23;;;3.73;82.27
71996;BME280;59862;47.732;7.346;2022-12-07T00:28:59;98224.95;;;3.76;82.17
71996;BME280;59862;47.732;7.346;2022-12-07T00:31:29;98220.97;;;3.76;82.08
71996;BME280;59862;47.732;7.346;2022-12-07T00:33:53;98215.22;;;3.71;82.17
71996;BME280;59862;47.732;7.346;2022-12-07T00:36:23;98216.80;;;3.58;82.15
71996;BME280;59862;47.732;7.346;2022-12-07T00:38:51;98215.61;;;3.57;82.30
71996;BME280;59862;47.732;7.346;2022-12-07T00:41:20;98213.73;;;3.63;82.28
71996;BME280;59862;47.732;7.346;2022-12-07T00:43:49;98217.98;;;3.60;82.42
71996;BME280;59862;47.732;7.346;2022-12-07T00:46:18;98208.29;;;3.64;82.27
71996;BME280;59862;47.732;7.346;2022-12-07T00:48:48;98209.69;;;3.59;82.13
71996;BME280;59862;47.732;7.346;2022-12-07T00:51:18;98204.81;;;3.49;82.19
71996;BME280;59862;47.732;7.346;2022-12-07T00:53:47;98208.61;;;3.56;82.32
71996;BME280;59862;47.732;7.346;2022-12-07T00:56:26;98201.98;;;3.56;82.23
71996;BME280;59862;47.732;7.346;2022-12-07T00:58:56;98207.83;;;3.50;82.32
71996;BME280;59862;47.732;7.346;2022-12-07T01:01:27;98206.59;;;3.39;82.33
71996;BME280;59862;47.732;7.346;2022-12-07T01:03:54;98205.50;;;3.41;82.51
71996;BME280;59862;47.732;7.346;2022-12-07T01:06:23;98208.79;;;3.49;82.40
71996;BME280;59862;47.732;7.346;2022-12-07T01:08:52;98203.15;;;3.48;82.33
71996;BME280;59862;47.732;7.346;2022-12-07T01:11:22;98203.59;;;3.53;82.27
71996;BME280;59862;47.732;7.346;2022-12-07T01:13:53;98198.14;;;3.54;82.27
71996;BME280;59862;47.732;7.346;2022-12-07T01:16:22;98195.80;;;3.61;82.14
71996;BME280;59862;47.732;7.346;2022-12-07T01:18:52;98196.64;;;3.61;82.03
71996;BME280;59862;47.732;7.346;2022-12-07T01:21:28;98200.22;;;3.66;81.91
71996;BME280;59862;47.732;7.346;2022-12-07T01:23:52;98204.13;;;3.71;81.73
71996;BME280;59862;47.732;7.346;2022-12-07T01:26:22;98209.69;;;3.68;81.57
71996;BME280;59862;47.732;7.346;2022-12-07T01:28:50;98215.98;;;3.67;81.52
71996;BME280;59862;47.732;7.346;2022-12-07T01:31:20;98214.08;;;3.64;81.62
71996;BME280;59862;47.732;7.346;2022-12-07T01:33:52;98209.06;;;3.70;81.65
71996;BME280;59862;47.732;7.346;2022-12-07T01:36:25;98207.34;;;3.75;81.56
71996;BME280;59862;47.732;7.346;2022-12-07T01:39:02;98207.92;;;3.78;81.46
71996;BME280;59862;47.732;7.346;2022-12-07T01:41:33;98211.91;;;3.78;81.32
71996;BME280;59862;47.732;7.346;2022-12-07T01:44:24;98216.80;;;3.83;81.20
71996;BME280;59862;47.732;7.346;2022-12-07T01:46:57;98218.21;;;3.87;81.11
71996;BME280;59862;47.732;7.346;2022-12-07T01:49:33;98214.92;;;3.89;80.95
71996;BME280;59862;47.732;7.346;2022-12-07T01:52:19;98219.72;;;3.80;80.91
71996;BME280;59862;47.732;7.346;2022-12-07T01:54:48;98224.80;;;3.68;81.03
71996;BME280;59862;47.732;7.346;2022-12-07T01:57:17;98225.09;;;3.74;81.13
71996;BME280;59862;47.732;7.346;2022-12-07T01:59:48;98222.78;;;3.75;81.11
71996;BME280;59862;47.732;7.346;2022-12-07T02:02:31;98222.01;;;3.79;81.27
71996;BME280;59862;47.732;7.346;2022-12-07T02:05:00;98218.03;;;3.79;81.21
71996;BME280;59862;47.732;7.346;2022-12-07T02:07:29;98217.77;;;3.82;81.06
71996;BME280;59862;47.732;7.346;2022-12-07T02:10:11;98213.16;;;3.84;81.10
71996;BME280;59862;47.732;7.346;2022-12-07T02:12:27;98210.87;;;3.85;81.04
71996;BME280;59862;47.732;7.346;2022-12-07T02:14:54;98211.58;;;3.87;81.00
71996;BME280;59862;47.732;7.346;2022-12-07T02:20:13;98206.34;;;3.91;80.98
71996;BME280;59862;47.732;7.346;2022-12-07T02:23:17;98200.66;;;3.90;80.86
71996;BME280;59862;47.732;7.346;2022-12-07T02:28:05;98209.25;;;3.88;80.89
71996;BME280;59862;47.732;7.346;2022-12-07T02:30:35;98208.55;;;3.86;80.94
71996;BME280;59862;47.732;7.346;2022-12-07T02:33:17;98204.45;;;3.88;80.99
71996;BME280;59862;47.732;7.346;2022-12-07T02:36:01;98207.30;;;3.90;81.02
71996;BME280;59862;47.732;7.346;2022-12-07T02:38:26;98211.64;;;3.91;80.98
71996;BME280;59862;47.732;7.346;2022-12-07T02:41:01;98203.20;;;3.92;81.02
71996;BME280;59862;47.732;7.346;2022-12-07T02:46:14;98212.83;;;3.93;80.92
71996;BME280;59862;47.732;7.346;2022-12-07T02:48:42;98218.21;;;3.87;80.91
71996;BME280;59862;47.732;7.346;2022-12-07T02:51:10;98211.28;;;3.90;81.04
71996;BME280;59862;47.732;7.346;2022-12-07T02:53:41;98217.28;;;3.82;80.96
71996;BME280;59862;47.732;7.346;2022-12-07T03:02:23;98217.09;;;3.65;81.13
71996;BME280;59862;47.732;7.346;2022-12-07T03:07:37;98222.58;;;3.58;81.53
71996;BME280;59862;47.732;7.346;2022-12-07T03:10:09;98218.34;;;3.61;81.62
71996;BME280;59862;47.732;7.346;2022-12-07T03:12:46;98216.41;;;3.48;81.81
71996;BME280;59862;47.732;7.346;2022-12-07T03:15:15;98214.92;;;3.40;82.14
71996;BME280;59862;47.732;7.346;2022-12-07T03:17:45;98207.22;;;3.37;82.39
71996;BME280;59862;47.732;7.346;2022-12-07T03:20:16;98206.14;;;3.49;82.33
71996;BME280;59862;47.732;7.346;2022-12-07T03:22:45;98212.44;;;3.33;82.39
71996;BME280;59862;47.732;7.346;2022-12-07T03:25:16;98213.60;;;3.25;82.85
71996;BME280;59862;47.732;7.346;2022-12-07T03:27:55;98208.30;;;3.40;82.86
71996;BME280;59862;47.732;7.346;2022-12-07T03:30:29;98205.41;;;3.52;82.62
71996;BME280;59862;47.732;7.346;2022-12-07T03:33:19;98203.39;;;3.35;82.42
71996;BME280;59862;47.732;7.346;2022-12-07T03:35:58;98206.55;;;3.14;82.92
71996;BME280;59862;47.732;7.346;2022-12-07T03:41:05;98211.29;;;3.26;83.39
71996;BME280;59862;47.732;7.346;2022-12-07T03:43:33;98208.55;;;3.37;83.24
71996;BME280;59862;47.732;7.346;2022-12-07T03:46:22;98204.65;;;3.41;82.89
71996;BME280;59862;47.732;7.346;2022-12-07T03:51:44;98204.71;;;3.35;82.99
71996;BME280;59862;47.732;7.346;2022-12-07T03:54:35;98207.39;;;3.30;83.29
71996;BME280;59862;47.732;7.346;2022-12-07T03:57:04;98202.63;;;3.24;83.37
71996;BME280;59862;47.732;7.346;2022-12-07T03:59:33;98198.40;;;3.27;83.41
71996;BME280;59862;47.732;7.346;2022-12-07T04:02:06;98198.40;;;3.27;83.43
71996;BME280;59862;47.732;7.346;2022-12-07T04:04:34;98203.08;;;3.29;83.47
71996;BME280;59862;47.732;7.346;2022-12-07T04:07:02;98198.48;;;3.31;83.46
71996;BME280;59862;47.732;7.346;2022-12-07T04:09:30;98202.15;;;3.24;83.44
71996;BME280;59862;47.732;7.346;2022-12-07T04:11:57;98195.86;;;3.25;83.53
71996;BME280;59862;47.732;7.346;2022-12-07T04:14:25;98194.13;;;3.30;83.46
71996;BME280;59862;47.732;7.346;2022-12-07T04:16:55;98192.63;;;3.37;83.35
71996;BME280;59862;47.732;7.346;2022-12-07T04:19:26;98191.17;;;3.23;83.38
71996;BME280;59862;47.732;7.346;2022-12-07T04:21:55;98191.56;;;3.34;83.54
71996;BME280;59862;47.732;7.346;2022-12-07T04:24:23;98189.98;;;3.37;83.55
71996;BME280;59862;47.732;7.346;2022-12-07T04:26:51;98182.25;;;3.39;83.26
71996;BME280;59862;47.732;7.346;2022-12-07T04:29:20;98186.09;;;3.41;83.19
71996;BME280;59862;47.732;7.346;2022-12-07T04:31:48;98172.39;;;3.51;83.03
71996;BME280;59862;47.732;7.346;2022-12-07T04:34:16;98180.28;;;3.56;82.75
71996;BME280;59862;47.732;7.346;2022-12-07T04:36:44;98183.16;;;3.59;82.57
71996;BME280;59862;47.732;7.346;2022-12-07T04:39:26;98178.33;;;3.58;82.41
71996;BME280;59862;47.732;7.346;2022-12-07T04:41:52;98177.77;;;3.55;82.35
71996;BME280;59862;47.732;7.346;2022-12-07T04:44:22;98176.08;;;3.54;82.22
71996;BME280;59862;47.732;7.346;2022-12-07T04:46:50;98167.97;;;3.46;82.43
71996;BME280;59862;47.732;7.346;2022-12-07T04:49:19;98175.00;;;3.41;82.60
71996;BME280;59862;47.732;7.346;2022-12-07T04:51:47;98172.48;;;3.40;82.65
71996;BME280;59862;47.732;7.346;2022-12-07T04:54:15;98185.31;;;3.20;83.06
71996;BME280;59862;47.732;7.346;2022-12-07T04:56:44;98181.11;;;3.17;83.55
71996;BME280;59862;47.732;7.346;2022-12-07T04:59:12;98183.36;;;3.22;83.64
71996;BME280;59862;47.732;7.346;2022-12-07T05:01:40;98175.46;;;3.31;83.61
71996;BME280;59862;47.732;7.346;2022-12-07T05:04:08;98175.77;;;3.38;83.45
71996;BME280;59862;47.732;7.346;2022-12-07T05:06:36;98174.52;;;3.42;83.20
71996;BME280;59862;47.732;7.346;2022-12-07T05:09:04;98180.86;;;3.45;83.01
71996;BME280;59862;47.732;7.346;2022-12-07T05:11:31;98181.06;;;3.38;82.93
71996;BME280;59862;47.732;7.346;2022-12-07T05:14:12;98187.01;;;3.45;82.99
71996;BME280;59862;47.732;7.346;2022-12-07T05:16:36;98179.28;;;3.48;82.83
71996;BME280;59862;47.732;7.346;2022-12-07T05:19:04;98181.08;;;3.47;82.78
71996;BME280;59862;47.732;7.346;2022-12-07T05:21:32;98186.88;;;3.32;82.87
71996;BME280;59862;47.732;7.346;2022-12-07T05:24:00;98189.63;;;3.21;83.37
71996;BME280;59862;47.732;7.346;2022-12-07T05:26:28;98184.74;;;3.31;83.53
71996;BME280;59862;47.732;7.346;2022-12-07T05:28:56;98182.03;;;3.37;83.43
71996;BME280;59862;47.732;7.346;2022-12-07T05:31:25;98184.28;;;3.41;83.32
71996;BME280;59862;47.732;7.346;2022-12-07T05:33:54;98186.53;;;3.46;83.16
71996;BME280;59862;47.732;7.346;2022-12-07T05:36:21;98175.78;;;3.47;83.04
71996;BME280;59862;47.732;7.346;2022-12-07T05:38:49;98177.95;;;3.48;82.98
71996;BME280;59862;47.732;7.346;2022-12-07T05:41:18;98175.92;;;3.46;82.91
71996;BME280;59862;47.732;7.346;2022-12-07T05:44:04;98179.82;;;3.42;82.86
71996;BME280;59862;47.732;7.346;2022-12-07T05:46:33;98173.00;;;3.34;82.82
71996;BME280;59862;47.732;7.346;2022-12-07T05:49:01;98172.70;;;3.27;82.83
71996;BME280;59862;47.732;7.346;2022-12-07T05:51:29;98180.80;;;3.26;82.81
71996;BME280;59862;47.732;7.346;2022-12-07T05:53:56;98180.88;;;3.15;82.75
71996;BME280;59862;47.732;7.346;2022-12-07T05:56:24;98179.64;;;3.03;82.77
71996;BME280;59862;47.732;7.346;2022-12-07T05:58:53;98181.93;;;2.72;83.26
71996;BME280;59862;47.732;7.346;2022-12-07T06:01:39;98184.58;;;2.72;83.54
71996;BME280;59862;47.732;7.346;2022-12-07T06:04:06;98182.33;;;2.62;83.54
71996;BME280;59862;47.732;7.346;2022-12-07T06:06:34;98192.70;;;2.39;83.82
71996;BME280;59862;47.732;7.346;2022-12-07T06:09:02;98188.27;;;2.34;84.08
71996;BME280;59862;47.732;7.346;2022-12-07T06:11:29;98186.94;;;2.34;84.20
71996;BME280;59862;47.732;7.346;2022-12-07T06:14:15;98185.41;;;2.32;84.20
71996;BME280;59862;47.732;7.346;2022-12-07T06:16:43;98182.68;;;2.22;84.17
71996;BME280;59862;47.732;7.346;2022-12-07T06:19:10;98187.30;;;2.09;84.28
71996;BME280;59862;47.732;7.346;2022-12-07T06:21:38;98185.78;;;2.01;84.53
71996;BME280;59862;47.732;7.346;2022-12-07T06:24:06;98192.53;;;1.94;84.79
71996;BME280;59862;47.732;7.346;2022-12-07T06:26:33;98187.41;;;1.81;85.13
71996;BME280;59862;47.732;7.346;2022-12-07T06:29:01;98184.89;;;1.80;85.38
71996;BME280;59862;47.732;7.346;2022-12-07T06:31:28;98186.08;;;1.76;85.78
71996;BME280;59862;47.732;7.346;2022-12-07T06:34:00;98184.99;;;1.78;85.97
71996;BME280;59862;47.732;7.346;2022-12-07T06:36:27;98187.41;;;1.81;86.01
71996;BME280;59862;47.732;7.346;2022-12-07T06:38:56;98181.40;;;1.79;85.99
71996;BME280;59862;47.732;7.346;2022-12-07T06:41:24;98185.02;;;1.73;85.88
71996;BME280;59862;47.732;7.346;2022-12-07T06:43:52;98179.86;;;1.66;85.72
71996;BME280;59862;47.732;7.346;2022-12-07T06:46:19;98186.63;;;1.53;85.66
71996;BME280;59862;47.732;7.346;2022-12-07T06:48:47;98182.20;;;1.42;85.77
71996;BME280;59862;47.732;7.346;2022-12-07T06:51:17;98182.80;;;1.40;85.87
71996;BME280;59862;47.732;7.346;2022-12-07T06:53:44;98181.47;;;1.35;85.90
71996;BME280;59862;47.732;7.346;2022-12-07T06:56:12;98175.11;;;1.26;85.96
71996;BME280;59862;47.732;7.346;2022-12-07T06:58:40;98180.17;;;1.18;86.17
71996;BME280;59862;47.732;7.346;2022-12-07T07:01:15;98189.55;;;1.06;86.40
71996;BME280;59862;47.732;7.346;2022-12-07T07:03:44;98188.20;;;1.00;86.62
71996;BME280;59862;47.732;7.346;2022-12-07T07:06:12;98196.62;;;0.94;86.67
71996;BME280;59862;47.732;7.346;2022-12-07T07:08:41;98199.24;;;0.83;86.86
71996;BME280;59862;47.732;7.346;2022-12-07T07:11:09;98185.56;;;0.84;86.93
71996;BME280;59862;47.732;7.346;2022-12-07T07:13:38;98189.66;;;0.82;86.90
71996;BME280;59862;47.732;7.346;2022-12-07T07:16:06;98185.80;;;0.75;87.07
71996;BME280;59862;47.732;7.346;2022-12-07T07:18:34;98192.03;;;0.68;87.46
71996;BME280;59862;47.732;7.346;2022-12-07T07:21:01;98191.66;;;0.62;87.87
71996;BME280;59862;47.732;7.346;2022-12-07T07:23:29;98194.54;;;0.70;88.16
71996;BME280;59862;47.732;7.346;2022-12-07T07:25:57;98195.38;;;0.76;88.35
71996;BME280;59862;47.732;7.346;2022-12-07T07:28:24;98196.48;;;0.79;88.52
71996;BME280;59862;47.732;7.346;2022-12-07T07:30:52;98196.48;;;0.79;88.68
71996;BME280;59862;47.732;7.346;2022-12-07T07:33:19;98195.16;;;0.79;88.87
71996;BME280;59862;47.732;7.346;2022-12-07T07:35:46;98193.73;;;0.86;88.90
71996;BME280;59862;47.732;7.346;2022-12-07T07:38:14;98201.78;;;0.90;88.86
71996;BME280;59862;47.732;7.346;2022-12-07T07:40:41;98206.34;;;0.88;88.79
71996;BME280;59862;47.732;7.346;2022-12-07T07:43:09;98206.82;;;0.82;88.70
71996;BME280;59862;47.732;7.346;2022-12-07T07:45:36;98215.09;;;0.83;88.66
71996;BME280;59862;47.732;7.346;2022-12-07T07:48:04;98215.09;;;0.78;88.63
71996;BME280;59862;47.732;7.346;2022-12-07T07:50:31;98215.34;;;0.80;88.61
71996;BME280;59862;47.732;7.346;2022-12-07T07:52:59;98215.09;;;0.83;88.52
71996;BME280;59862;47.732;7.346;2022-12-07T07:55:26;98215.59;;;0.88;88.33
71996;BME280;59862;47.732;7.346;2022-12-07T07:57:54;98217.73;;;0.83;88.14
71996;BME280;59862;47.732;7.346;2022-12-07T08:00:22;98224.33;;;0.83;88.06
71996;BME280;59862;47.732;7.346;2022-12-07T08:02:49;98222.77;;;0.81;88.09
71996;BME280;59862;47.732;7.346;2022-12-07T08:05:17;98224.46;;;0.82;88.16
71996;BME280;59862;47.732;7.346;2022-12-07T08:07:45;98224.33;;;0.83;88.16
71996;BME280;59862;47.732;7.346;2022-12-07T08:10:13;98227.95;;;0.88;88.10
71996;BME280;59862;47.732;7.346;2022-12-07T08:12:42;98234.58;;;0.93;88.21
71996;BME280;59862;47.732;7.346;2022-12-07T08:15:14;98237.45;;;1.01;88.34
71996;BME280;59862;47.732;7.346;2022-12-07T08:17:41;98243.58;;;1.07;88.50
71996;BME280;59862;47.732;7.346;2022-12-07T08:20:09;98244.45;;;1.30;88.53
71996;BME280;59862;47.732;7.346;2022-12-07T08:22:36;98246.09;;;1.70;88.90
71996;BME280;59862;47.732;7.346;2022-12-07T08:25:04;98241.19;;;2.13;89.69
71996;BME280;59862;47.732;7.346;2022-12-07T08:27:31;98250.01;;;2.35;89.94
71996;BME280;59862;47.732;7.346;2022-12-07T08:29:59;98248.77;;;2.91;90.12
71996;BME280;59862;47.732;7.346;2022-12-07T08:32:27;98240.93;;;3.40;89.78
71996;BME280;59862;47.732;7.346;2022-12-07T08:34:54;98245.64;;;4.07;88.98
71996;BME280;59862;47.732;7.346;2022-12-07T08:37:21;98239.79;;;4.51;87.40
71996;BME280;59862;47.732;7.346;2022-12-07T08:39:49;98234.73;;;4.96;85.10
71996;BME280;59862;47.732;7.346;2022-12-07T08:42:16;98228.03;;;5.38;82.37
71996;BME280;59862;47.732;7.346;2022-12-07T08:44:45;98240.29;;;5.12;78.84
71996;BME280;59862;47.732;7.346;2022-12-07T08:47:12;98249.84;;;4.86;77.87
71996;BME280;59862;47.732;7.346;2022-12-07T08:49:41;98244.95;;;4.91;77.11
71996;BME280;59862;47.732;7.346;2022-12-07T08:52:09;98238.09;;;4.98;76.02
71996;BME280;59862;47.732;7.346;2022-12-07T08:54:38;98245.34;;;5.15;75.52
71996;BME280;59862;47.732;7.346;2022-12-07T08:57:08;98245.12;;;5.03;75.04
71996;BME280;59862;47.732;7.346;2022-12-07T08:59:37;98247.00;;;5.16;75.22
71996;BME280;59862;47.732;7.346;2022-12-07T09:02:05;98248.37;;;5.66;73.84
71996;BME280;59862;47.732;7.346;2022-12-07T09:04:33;98249.72;;;5.80;72.95
71996;BME280;59862;47.732;7.346;2022-12-07T09:07:01;98248.60;;;6.23;72.21
71996;BME280;59862;47.732;7.346;2022-12-07T09:09:28;98252.03;;;6.33;70.88
71996;BME280;59862;47.732;7.346;2022-12-07T09:11:56;98255.58;;;5.93;71.34
71996;BME280;59862;47.732;7.346;2022-12-07T09:14:24;98251.42;;;5.58;72.03
71996;BME280;59862;47.732;7.346;2022-12-07T09:16:51;98255.61;;;5.14;73.19
71996;BME280;59862;47.732;7.346;2022-12-07T09:19:19;98252.04;;;5.19;73.80
71996;BME280;59862;47.732;7.346;2022-12-07T09:21:46;98251.58;;;5.56;73.66
71996;BME280;59862;47.732;7.346;2022-12-07T09:24:14;98255.31;;;5.63;72.62
71996;BME280;59862;47.732;7.346;2022-12-07T09:26:41;98261.98;;;5.17;73.06
71996;BME280;59862;47.732;7.346;2022-12-07T09:29:09;98262.57;;;5.34;73.78
71996;BME280;59862;47.732;7.346;2022-12-07T09:31:37;98258.80;;;5.73;72.00
71996;BME280;59862;47.732;7.346;2022-12-07T09:34:04;98265.83;;;5.78;71.28
71996;BME280;59862;47.732;7.346;2022-12-07T09:36:32;98268.28;;;5.85;71.36
71996;BME280;59862;47.732;7.346;2022-12-07T09:39:00;98263.94;;;5.98;70.67
71996;BME280;59862;47.732;7.346;2022-12-07T09:41:30;98271.00;;;6.17;69.82
71996;BME280;59862;47.732;7.346;2022-12-07T09:44:09;98262.63;;;5.38;71.00
71996;BME280;59862;47.732;7.346;2022-12-07T09:46:34;98260.98;;;5.18;72.44
71996;BME280;59862;47.732;7.346;2022-12-07T09:49:03;98254.16;;;5.06;72.51
71996;BME280;59862;47.732;7.346;2022-12-07T09:51:31;98260.75;;;5.02;73.38
71996;BME280;59862;47.732;7.346;2022-12-07T09:54:00;98254.16;;;5.06;73.75
71996;BME280;59862;47.732;7.346;2022-12-07T09:56:29;98246.77;;;5.00;73.75
71996;BME280;59862;47.732;7.346;2022-12-07T09:59:02;98248.85;;;4.96;73.96
71996;BME280;59862;47.732;7.346;2022-12-07T10:01:32;98244.59;;;5.09;73.91
71996;BME280;59862;47.732;7.346;2022-12-07T10:04:15;98247.00;;;5.16;73.68
71996;BME280;59862;47.732;7.346;2022-12-07T10:06:43;98244.22;;;5.08;73.40
71996;BME280;59862;47.732;7.346;2022-12-07T10:09:19;98242.17;;;4.83;74.21
71996;BME280;59862;47.732;7.346;2022-12-07T10:14:38;98235.06;;;4.54;74.47
71996;BME280;59862;47.732;7.346;2022-12-07T10:20:12;98223.30;;;4.28;73.90
71996;BME280;59862;47.732;7.346;2022-12-07T10:22:37;98216.43;;;4.35;74.12
71996;BME280;59862;47.732;7.346;2022-12-07T10:25:09;98217.56;;;4.42;74.91
71996;BME280;59862;47.732;7.346;2022-12-07T10:27:37;98215.89;;;4.60;74.38
71996;BME280;59862;47.732;7.346;2022-12-07T10:30:07;98209.00;;;4.77;74.58
71996;BME280;59862;47.732;7.346;2022-12-07T10:32:36;98209.09;;;4.72;74.16
71996;BME280;59862;47.732;7.346;2022-12-07T10:35:27;98208.27;;;4.23;73.55
71996;BME280;59862;47.732;7.346;2022-12-07T10:37:56;98201.20;;;4.09;74.38
71996;BME280;59862;47.732;7.346;2022-12-07T10:43:15;98201.73;;;3.68;75.97
71996;BME280;59862;47.732;7.346;2022-12-07T10:45:34;98201.52;;;3.81;75.83
71996;BME280;59862;47.732;7.346;2022-12-07T11:05:06;98176.43;;;6.95;64.79
71996;BME280;59862;47.732;7.346;2022-12-07T11:07:37;98172.80;;;7.04;63.21
71996;BME280;59862;47.732;7.346;2022-12-07T11:15:51;98173.95;;;5.61;67.27
71996;BME280;59862;47.732;7.346;2022-12-07T11:26:13;98146.94;;;6.75;63.07
71996;BME280;59862;47.732;7.346;2022-12-07T11:34:15;98142.45;;;6.32;63.99
71996;BME280;59862;47.732;7.346;2022-12-07T11:36:45;98138.97;;;6.18;64.27
71996;BME280;59862;47.732;7.346;2022-12-07T11:39:30;98126.47;;;6.54;64.12
71996;BME280;59862;47.732;7.346;2022-12-07T11:42:29;98120.45;;;6.52;64.11
71996;BME280;59862;47.732;7.346;2022-12-07T11:47:45;98112.30;;;7.09;61.74
71996;BME280;59862;47.732;7.346;2022-12-07T11:50:36;98114.05;;;6.92;59.71
71996;BME280;59862;47.732;7.346;2022-12-07T11:58:52;98102.00;;;5.97;64.04
71996;BME280;59862;47.732;7.346;2022-12-07T12:00:55;98097.05;;;5.71;64.65
71996;BME280;59862;47.732;7.346;2022-12-07T12:03:28;98102.36;;;5.71;65.45
71996;BME280;59862;47.732;7.346;2022-12-07T12:05:56;98099.55;;;5.73;64.58
71996;BME280;59862;47.732;7.346;2022-12-07T12:11:19;98093.38;;;5.72;63.88
71996;BME280;59862;47.732;7.346;2022-12-07T12:13:54;98093.91;;;5.89;63.90
71996;BME280;59862;47.732;7.346;2022-12-07T12:16:25;98091.38;;;6.01;60.85
71996;BME280;59862;47.732;7.346;2022-12-07T12:21:46;98090.63;;;5.78;58.42
71996;BME280;59862;47.732;7.346;2022-12-07T12:24:18;98085.81;;;5.50;56.41
71996;BME280;59862;47.732;7.346;2022-12-07T12:26:55;98080.11;;;5.90;57.49
71996;BME280;59862;47.732;7.346;2022-12-07T12:29:34;98074.29;;;6.08;57.87
71996;BME280;59862;47.732;7.346;2022-12-07T12:32:16;98071.98;;;6.13;56.07
71996;BME280;59862;47.732;7.346;2022-12-07T12:35:18;98070.80;;;6.80;55.08
71996;BME280;59862;47.732;7.346;2022-12-07T12:42:55;98065.02;;;8.85;48.51
71996;BME280;59862;47.732;7.346;2022-12-07T12:45:30;98063.73;;;8.41;49.46
71996;BME280;59862;47.732;7.346;2022-12-07T12:48:00;98062.33;;;8.89;50.38
71996;BME280;59862;47.732;7.346;2022-12-07T12:50:33;98053.84;;;10.54;45.98
71996;BME280;59862;47.732;7.346;2022-12-07T12:53:24;98053.84;;;10.54;45.98
71996;BME280;59862;47.732;7.346;2022-12-07T12:56:10;98053.09;;;10.45;46.67
71996;BME280;59862;47.732;7.346;2022-12-07T12:58:39;98055.22;;;11.81;42.93
71996;BME280;59862;47.732;7.346;2022-12-07T13:01:35;98054.95;;;12.61;42.57
71996;BME280;59862;47.732;7.346;2022-12-07T13:04:00;98054.31;;;14.39;39.51
71996;BME280;59862;47.732;7.346;2022-12-07T13:06:35;98054.01;;;16.56;33.49
71996;BME280;59862;47.732;7.346;2022-12-07T13:09:02;98053.17;;;18.73;30.60
71996;BME280;59862;47.732;7.346;2022-12-07T13:14:43;98049.82;;;20.55;27.70
71996;BME280;59862;47.732;7.346;2022-12-07T13:17:12;98050.94;;;21.97;25.77
71996;BME280;59862;47.732;7.346;2022-12-07T13:25:12;98054.61;;;24.02;22.33
71996;BME280;59862;47.732;7.346;2022-12-07T13:27:41;98048.86;;;25.46;21.77
71996;BME280;59862;47.732;7.346;2022-12-07T13:30:15;98044.67;;;25.72;20.54
71996;BME280;59862;47.732;7.346;2022-12-07T13:32:51;98041.91;;;25.77;21.20
71996;BME280;59862;47.732;7.346;2022-12-07T13:35:36;98041.92;;;26.89;20.20
71996;BME280;59862;47.732;7.346;2022-12-07T13:41:13;98046.23;;;26.59;20.31
71996;BME280;59862;47.732;7.346;2022-12-07T13:43:53;98038.98;;;27.72;18.50
71996;BME280;59862;47.732;7.346;2022-12-07T13:46:24;98033.81;;;27.89;18.45
71996;BME280;59862;47.732;7.346;2022-12-07T13:48:51;98036.43;;;28.84;17.85
71996;BME280;59862;47.732;7.346;2022-12-07T13:51:26;98036.66;;;28.05;18.10
71996;BME280;59862;47.732;7.346;2022-12-07T13:54:00;98036.64;;;29.22;16.77
71996;BME280;59862;47.732;7.346;2022-12-07T13:56:27;98030.36;;;29.19;17.00
71996;BME280;59862;47.732;7.346;2022-12-07T13:58:56;98030.48;;;28.93;16.67
71996;BME280;59862;47.732;7.346;2022-12-07T14:01:24;98022.66;;;29.16;15.97
71996;BME280;59862;47.732;7.346;2022-12-07T14:03:52;98020.55;;;27.08;17.21
71996;BME280;59862;47.732;7.346;2022-12-07T14:06:23;98017.33;;;27.58;17.72
71996;BME280;59862;47.732;7.346;2022-12-07T14:09:20;98020.61;;;28.10;17.88
71996;BME280;59862;47.732;7.346;2022-12-07T14:11:47;98015.06;;;28.12;16.52
71996;BME280;59862;47.732;7.346;2022-12-07T14:14:18;98010.13;;;28.09;17.92
71996;BME280;59862;47.732;7.346;2022-12-07T14:16:57;98004.16;;;26.90;18.87
71996;BME280;59862;47.732;7.346;2022-12-07T14:22:26;98000.61;;;25.92;18.79
71996;BME280;59862;47.732;7.346;2022-12-07T14:27:54;98001.95;;;22.14;22.60
71996;BME280;59862;47.732;7.346;2022-12-07T14:30:27;97992.37;;;18.88;26.87
71996;BME280;59862;47.732;7.346;2022-12-07T14:33:01;97996.83;;;16.89;28.43
71996;BME280;59862;47.732;7.346;2022-12-07T14:35:29;97988.72;;;13.95;34.77
71996;BME280;59862;47.732;7.346;2022-12-07T14:37:58;97990.77;;;12.58;37.17
71996;BME280;59862;47.732;7.346;2022-12-07T14:40:27;97987.56;;;11.53;41.07
71996;BME280;59862;47.732;7.346;2022-12-07T14:43:04;97987.77;;;10.72;42.96
71996;BME280;59862;47.732;7.346;2022-12-07T14:45:33;97971.38;;;9.92;44.41
71996;BME280;59862;47.732;7.346;2022-12-07T14:48:00;97975.91;;;9.15;46.70
71996;BME280;59862;47.732;7.346;2022-12-07T14:50:28;97970.69;;;8.16;51.85
71996;BME280;59862;47.732;7.346;2022-12-07T14:53:00;97967.17;;;7.76;51.77
71996;BME280;59862;47.732;7.346;2022-12-07T14:55:30;97958.46;;;7.33;52.72
71996;BME280;59862;47.732;7.346;2022-12-07T14:57:58;97966.37;;;6.97;54.11
71996;BME280;59862;47.732;7.346;2022-12-07T15:00:28;97966.19;;;6.57;55.77
71996;BME280;59862;47.732;7.346;2022-12-07T15:02:57;97971.34;;;6.25;57.10
71996;BME280;59862;47.732;7.346;2022-12-07T15:05:25;97976.39;;;5.84;58.10
71996;BME280;59862;47.732;7.346;2022-12-07T15:07:53;97974.02;;;5.64;58.88
71996;BME280;59862;47.732;7.346;2022-12-07T15:10:27;97980.30;;;5.41;59.38
71996;BME280;59862;47.732;7.346;2022-12-07T15:12:52;97984.61;;;5.24;60.13
71996;BME280;59862;47.732;7.346;2022-12-07T15:15:19;97980.86;;;5.00;60.54